createdAt,value
2023-05-02T00:00:29.164Z,100.00
2023-05-02T00:03:03.753Z,100.00
2023-05-02T00:05:35.268Z,100.00
2023-05-02T00:08:06.059Z,100.00
2023-05-02T00:10:36.373Z,100.00
2023-05-02T00:13:07.721Z,100.00
2023-05-02T00:15:38.116Z,100.00
2023-05-02T00:18:08.575Z,100.00
2023-05-02T00:20:40.652Z,100.00
2023-05-02T00:23:12.241Z,100.00
2023-05-02T00:25:47.661Z,100.00
2023-05-02T00:28:18.728Z,100.00
2023-05-02T00:30:49.247Z,100.00
2023-05-02T00:33:19.992Z,100.00
2023-05-02T00:35:51.553Z,100.00
2023-05-02T00:38:21.953Z,100.00
2023-05-02T00:40:53.513Z,100.00
2023-05-02T00:43:24.152Z,100.00
2023-05-02T00:45:54.688Z,100.00
2023-05-02T00:48:25.923Z,100.00
2023-05-02T00:50:57.455Z,100.00
2023-05-02T00:53:29.716Z,100.00
2023-05-02T00:56:00.538Z,100.00
2023-05-02T00:58:32.067Z,100.00
2023-05-02T01:01:13.482Z,100.00
2023-05-02T01:03:56.619Z,100.00
2023-05-02T01:06:36.476Z,100.00
2023-05-02T01:09:22.667Z,100.00
2023-05-02T01:12:04.384Z,100.00
2023-05-02T01:14:42.188Z,100.00
2023-05-02T01:17:15.561Z,100.00
2023-05-02T01:19:52.150Z,100.00
2023-05-02T01:22:25.761Z,100.00
2023-05-02T01:25:05.984Z,100.00
2023-05-02T01:27:48.822Z,100.00
2023-05-02T01:30:22.329Z,100.00
2023-05-02T01:32:56.347Z,100.00
2023-05-02T01:35:28.766Z,100.00
2023-05-02T01:38:01.728Z,100.00
2023-05-02T01:40:33.799Z,100.00
2023-05-02T01:43:06.925Z,100.00
2023-05-02T01:45:39.539Z,100.00
2023-05-02T01:48:11.957Z,100.00
2023-05-02T01:50:45.962Z,100.00
2023-05-02T01:53:17.340Z,100.00
2023-05-02T01:55:51.238Z,100.00
2023-05-02T01:58:22.636Z,100.00
2023-05-02T02:00:54.848Z,100.00
2023-05-02T02:03:25.671Z,100.00
2023-05-02T02:05:59.490Z,100.00
2023-05-02T02:08:30.080Z,100.00
2023-05-02T02:11:09.780Z,100.00
2023-05-02T02:13:45.358Z,100.00
2023-05-02T02:16:25.576Z,100.00
2023-05-02T02:18:58.646Z,100.00
2023-05-02T02:21:32.175Z,100.00
2023-05-02T02:24:06.520Z,100.00
2023-05-02T02:26:37.666Z,100.00
2023-05-02T02:29:08.098Z,100.00
2023-05-02T02:31:39.816Z,100.00
2023-05-02T02:34:11.281Z,100.00
2023-05-02T02:36:50.954Z,100.00
2023-05-02T02:39:31.459Z,100.00
2023-05-02T02:42:12.737Z,100.00
2023-05-02T02:44:57.485Z,100.00
2023-05-02T02:47:33.328Z,100.00
2023-05-02T02:50:15.794Z,100.00
2023-05-02T02:52:56.666Z,100.00
2023-05-02T02:55:38.208Z,100.00
2023-05-02T02:58:21.678Z,100.00
2023-05-02T03:00:53.241Z,100.00
2023-05-02T03:03:29.109Z,100.00
2023-05-02T03:06:00.601Z,100.00
2023-05-02T03:08:41.581Z,100.00
2023-05-02T03:11:12.823Z,100.00
2023-05-02T03:13:43.234Z,100.00
2023-05-02T03:16:35.388Z,100.00
2023-05-02T03:19:07.533Z,100.00
2023-05-02T03:21:38.272Z,100.00
2023-05-02T03:24:18.427Z,100.00
2023-05-02T03:26:50.241Z,100.00
2023-05-02T03:29:21.385Z,100.00
2023-05-02T03:31:51.922Z,100.00
2023-05-02T03:34:23.634Z,100.00
2023-05-02T03:36:54.388Z,100.00
2023-05-02T03:39:24.932Z,100.00
2023-05-02T03:41:55.344Z,100.00
2023-05-02T03:44:26.678Z,100.00
2023-05-02T03:46:57.090Z,100.00
2023-05-02T03:49:27.981Z,100.00
2023-05-02T03:51:58.784Z,100.00
2023-05-02T03:54:32.869Z,100.00
2023-05-02T03:57:04.243Z,100.00
2023-05-02T03:59:41.644Z,100.00
2023-05-02T04:02:14.950Z,100.00
2023-05-02T04:04:50.057Z,100.00
2023-05-02T04:07:25.819Z,100.00
2023-05-02T04:10:02.502Z,100.00
2023-05-02T04:12:36.666Z,100.00
2023-05-02T04:15:09.725Z,100.00
2023-05-02T04:17:41.419Z,100.00
2023-05-02T04:20:14.244Z,100.00
2023-05-02T04:22:50.182Z,100.00
2023-05-02T04:25:21.044Z,100.00
2023-05-02T04:27:52.530Z,100.00
2023-05-02T04:30:25.511Z,100.00
2023-05-02T04:33:04.763Z,100.00
2023-05-02T04:35:42.097Z,100.00
2023-05-02T04:38:15.653Z,100.00
2023-05-02T04:40:47.170Z,100.00
2023-05-02T04:43:17.571Z,100.00
2023-05-02T04:45:53.452Z,100.00
2023-05-02T04:48:29.969Z,100.00
2023-05-02T04:51:00.560Z,100.00
2023-05-02T04:53:32.454Z,100.00
2023-05-02T04:56:03.271Z,100.00
2023-05-02T04:58:36.226Z,100.00
2023-05-02T05:01:09.736Z,100.00
2023-05-02T05:03:42.653Z,100.00
2023-05-02T05:06:13.517Z,100.00
2023-05-02T05:08:46.510Z,100.00
2023-05-02T05:11:17.588Z,100.00
2023-05-02T05:13:47.986Z,100.00
2023-05-02T05:16:19.059Z,100.00
2023-05-02T05:18:50.374Z,100.00
2023-05-02T05:21:20.870Z,100.00
2023-05-02T05:23:52.114Z,100.00
2023-05-02T05:26:28.041Z,100.00
2023-05-02T05:28:59.388Z,100.00
2023-05-02T05:31:34.916Z,100.00
2023-05-02T05:34:05.477Z,100.00
2023-05-02T05:36:38.471Z,100.00
2023-05-02T05:39:08.869Z,100.00
2023-05-02T05:41:40.823Z,100.00
2023-05-02T05:44:13.591Z,100.00
2023-05-02T05:46:44.051Z,100.00
2023-05-02T05:49:16.385Z,100.00
2023-05-02T05:51:47.683Z,100.00
2023-05-02T05:54:19.466Z,100.00
2023-05-02T05:56:50.372Z,100.00
2023-05-02T05:59:23.215Z,100.00
2023-05-02T06:01:56.301Z,100.00
2023-05-02T06:04:27.254Z,100.00
2023-05-02T06:06:57.958Z,100.00
2023-05-02T06:09:28.494Z,100.00
2023-05-02T06:11:59.045Z,100.00
2023-05-02T06:14:29.542Z,100.00
2023-05-02T06:17:01.469Z,100.00
2023-05-02T06:19:32.095Z,100.00
2023-05-02T06:22:02.466Z,100.00
2023-05-02T06:24:32.837Z,100.00
2023-05-02T06:27:03.170Z,100.00
2023-05-02T06:29:33.469Z,100.00
2023-05-02T06:32:04.265Z,100.00
2023-05-02T06:34:35.788Z,100.00
2023-05-02T06:37:06.354Z,100.00
2023-05-02T06:39:37.113Z,100.00
2023-05-02T06:42:07.502Z,100.00
2023-05-02T06:44:38.516Z,100.00
2023-05-02T06:47:09.142Z,100.00
2023-05-02T06:49:39.642Z,100.00
2023-05-02T06:52:10.051Z,100.00
2023-05-02T06:54:42.449Z,100.00
2023-05-02T06:57:13.077Z,100.00
2023-05-02T06:59:43.492Z,100.00
2023-05-02T07:02:13.808Z,100.00
2023-05-02T07:04:44.119Z,100.00
2023-05-02T07:07:18.866Z,100.00
2023-05-02T07:09:49.783Z,100.00
2023-05-02T07:12:21.007Z,100.00
2023-05-02T07:14:51.369Z,100.00
2023-05-02T07:17:21.649Z,100.00
2023-05-02T07:19:52.005Z,100.00
2023-05-02T07:22:24.230Z,100.00
2023-05-02T07:25:02.150Z,100.00
2023-05-02T07:27:32.939Z,100.00
2023-05-02T07:30:03.683Z,100.00
2023-05-02T07:32:34.374Z,100.00
2023-05-02T07:35:05.053Z,100.00
2023-05-02T07:37:36.973Z,100.00
2023-05-02T07:40:09.700Z,100.00
2023-05-02T07:42:41.231Z,100.00
2023-05-02T07:45:12.878Z,100.00
2023-05-02T07:47:43.282Z,100.00
2023-05-02T07:50:14.129Z,100.00
2023-05-02T07:52:44.420Z,100.00
2023-05-02T07:55:15.227Z,100.00
2023-05-02T07:57:45.574Z,100.00
2023-05-02T08:00:17.910Z,100.00
2023-05-02T08:02:48.417Z,100.00
2023-05-02T08:05:18.951Z,100.00
2023-05-02T08:07:49.481Z,100.00
2023-05-02T08:10:19.957Z,100.00
2023-05-02T08:12:50.909Z,100.00
2023-05-02T08:15:21.250Z,100.00
2023-05-02T08:17:52.236Z,100.00
2023-05-02T08:20:23.663Z,100.00
2023-05-02T08:22:54.137Z,100.00
2023-05-02T08:25:24.627Z,100.00
2023-05-02T08:27:55.054Z,100.00
2023-05-02T08:30:25.668Z,100.00
2023-05-02T08:32:57.398Z,100.00
2023-05-02T08:35:29.631Z,100.00
2023-05-02T08:37:59.981Z,100.00
2023-05-02T08:40:41.536Z,100.00
2023-05-02T08:43:13.953Z,100.00
2023-05-02T08:45:45.932Z,100.00
2023-05-02T08:48:18.039Z,100.00
2023-05-02T08:50:49.616Z,100.00
2023-05-02T08:53:21.128Z,100.00
2023-05-02T08:55:51.833Z,100.00
2023-05-02T08:58:22.123Z,100.00
2023-05-02T09:00:53.596Z,100.00
2023-05-02T09:03:31.383Z,100.00
2023-05-02T09:06:14.115Z,100.00
2023-05-02T09:08:46.262Z,100.00
2023-05-02T09:11:18.054Z,100.00
2023-05-02T09:13:49.394Z,100.00
2023-05-02T09:16:22.715Z,100.00
2023-05-02T09:18:54.769Z,100.00
2023-05-02T09:21:26.521Z,100.00
2023-05-02T09:23:59.086Z,100.00
2023-05-02T09:26:32.761Z,100.00
2023-05-02T09:29:05.408Z,100.00
2023-05-02T09:31:55.007Z,100.00
2023-05-02T09:34:26.401Z,100.00
2023-05-02T09:36:57.824Z,100.00
2023-05-02T09:39:30.037Z,100.00
2023-05-02T09:42:01.498Z,100.00
2023-05-02T09:44:42.625Z,100.00
2023-05-02T09:47:26.565Z,100.00
2023-05-02T09:49:56.895Z,100.00
2023-05-02T09:52:27.264Z,100.00
2023-05-02T09:54:58.158Z,100.00
2023-05-02T09:57:42.081Z,100.00
2023-05-02T10:00:19.605Z,100.00
2023-05-02T10:02:52.444Z,100.00
2023-05-02T10:05:23.440Z,100.00
2023-05-02T10:07:53.932Z,100.00
2023-05-02T10:10:24.632Z,100.00
2023-05-02T10:12:56.087Z,100.00
2023-05-02T10:15:30.617Z,100.00
2023-05-02T10:18:02.669Z,100.00
2023-05-02T10:20:38.883Z,100.00
2023-05-02T10:23:09.719Z,100.00
2023-05-02T10:25:40.817Z,100.00
2023-05-02T10:28:12.965Z,100.00
2023-05-02T10:30:44.464Z,100.00
2023-05-02T10:33:17.242Z,100.00
2023-05-02T10:35:49.840Z,100.00
2023-05-02T10:38:24.715Z,100.00
2023-05-02T10:41:00.101Z,100.00
2023-05-02T10:43:35.068Z,100.00
2023-05-02T10:46:25.987Z,100.00
2023-05-02T10:49:04.938Z,100.00
2023-05-02T10:51:36.401Z,100.00
2023-05-02T10:54:26.298Z,100.00
2023-05-02T10:57:13.573Z,100.00
2023-05-02T10:59:43.074Z,100.00
2023-05-02T11:02:55.756Z,100.00
2023-05-02T11:05:27.091Z,100.00
2023-05-02T11:08:28.491Z,100.00
2023-05-02T11:10:58.828Z,100.00
2023-05-02T11:13:51.587Z,100.00
2023-05-02T11:16:21.986Z,100.00
2023-05-02T11:19:02.358Z,100.00
2023-05-02T11:21:33.130Z,100.00
2023-05-02T11:24:40.124Z,100.00
2023-05-02T11:27:41.458Z,100.00
2023-05-02T11:30:13.660Z,100.00
2023-05-02T11:33:29.649Z,100.00
2023-05-02T11:36:00.287Z,100.00
2023-05-02T11:38:39.086Z,100.00
2023-05-02T11:41:09.428Z,100.00
2023-05-02T11:43:39.727Z,100.00
2023-05-02T11:46:10.286Z,100.00
2023-05-02T11:48:42.606Z,100.00
2023-05-02T11:51:13.034Z,100.00
2023-05-02T11:53:43.940Z,100.00
2023-05-02T11:56:14.335Z,100.00
2023-05-02T11:58:44.674Z,100.00
2023-05-02T12:01:17.296Z,100.00
2023-05-02T12:03:49.406Z,100.00
2023-05-02T12:06:20.780Z,100.00
2023-05-02T12:08:55.662Z,100.00
2023-05-02T12:11:26.158Z,100.00
2023-05-02T12:13:57.742Z,100.00
2023-05-02T12:16:28.161Z,100.00
2023-05-02T12:19:00.947Z,100.00
2023-05-02T12:21:32.920Z,100.00
2023-05-02T12:24:03.946Z,100.00
2023-05-02T12:26:34.323Z,100.00
2023-05-02T12:29:07.771Z,100.00
2023-05-02T12:31:38.125Z,97.84
2023-05-02T12:34:08.472Z,95.44
2023-05-02T12:36:46.470Z,96.48
2023-05-02T12:39:16.959Z,98.22
2023-05-02T12:41:47.459Z,100.00
2023-05-02T12:44:18.789Z,100.00
2023-05-02T12:47:01.665Z,100.00
2023-05-02T12:49:32.732Z,100.00
2023-05-02T12:52:03.158Z,100.00
2023-05-02T12:54:33.439Z,100.00
2023-05-02T12:57:04.632Z,100.00
2023-05-02T12:59:35.066Z,100.00
2023-05-02T13:02:05.942Z,100.00
2023-05-02T13:04:41.171Z,100.00
2023-05-02T13:07:12.134Z,100.00
2023-05-02T13:09:42.458Z,100.00
2023-05-02T13:12:13.114Z,100.00
2023-05-02T13:14:43.550Z,100.00
2023-05-02T13:17:14.783Z,100.00
2023-05-02T13:19:57.898Z,100.00
2023-05-02T13:22:31.906Z,100.00
2023-05-02T13:25:02.301Z,100.00
2023-05-02T13:27:34.203Z,100.00
2023-05-02T13:30:08.567Z,100.00
2023-05-02T13:32:40.292Z,100.00
2023-05-02T13:35:14.033Z,100.00
2023-05-02T13:37:44.528Z,100.00
2023-05-02T13:40:15.829Z,98.83
2023-05-02T13:42:46.190Z,97.16
2023-05-02T13:45:17.462Z,98.04
2023-05-02T13:47:47.884Z,94.74
2023-05-02T13:50:18.334Z,93.21
2023-05-02T13:52:49.417Z,91.74
2023-05-02T13:55:19.949Z,89.98
2023-05-02T13:57:50.637Z,87.30
2023-05-02T14:00:22.068Z,84.42
2023-05-02T14:02:52.934Z,84.45
2023-05-02T14:05:23.594Z,84.90
2023-05-02T14:07:53.947Z,86.22
2023-05-02T14:10:24.272Z,85.78
2023-05-02T14:12:54.560Z,85.11
2023-05-02T14:15:26.932Z,81.96
2023-05-02T14:17:57.377Z,83.84
2023-05-02T14:20:27.744Z,85.77
2023-05-02T14:22:58.879Z,82.65
2023-05-02T14:25:29.133Z,83.88
2023-05-02T14:28:00.511Z,84.74
2023-05-02T14:30:31.345Z,84.13
2023-05-02T14:33:01.738Z,85.90
2023-05-02T14:35:32.308Z,85.93
2023-05-02T14:38:03.945Z,86.35
2023-05-02T14:40:34.453Z,87.53
2023-05-02T14:43:04.916Z,88.43
2023-05-02T14:45:35.498Z,88.71
2023-05-02T14:48:06.605Z,86.68
2023-05-02T14:50:40.150Z,86.16
2023-05-02T14:53:10.493Z,87.89
2023-05-02T14:55:40.918Z,89.93
2023-05-02T14:58:11.883Z,92.89
2023-05-02T15:00:43.201Z,94.66
2023-05-02T15:03:14.207Z,94.55
2023-05-02T15:05:44.863Z,94.62
2023-05-02T15:08:16.015Z,94.63
2023-05-02T15:10:46.350Z,95.63
2023-05-02T15:13:16.597Z,96.00
2023-05-02T15:15:48.925Z,97.49
2023-05-02T15:18:19.239Z,98.52
2023-05-02T15:20:49.853Z,99.05
2023-05-02T15:23:20.160Z,99.95
2023-05-02T15:25:50.938Z,100.00
2023-05-02T15:28:21.354Z,100.00
2023-05-02T15:30:51.647Z,100.00
2023-05-02T15:33:21.941Z,100.00
2023-05-02T15:35:59.746Z,100.00
2023-05-02T15:38:30.076Z,100.00
2023-05-02T15:41:01.571Z,100.00
2023-05-02T15:43:31.998Z,100.00
2023-05-02T15:46:02.831Z,100.00
2023-05-02T15:48:34.930Z,100.00
2023-05-02T15:51:06.552Z,100.00
2023-05-02T15:53:42.427Z,100.00
2023-05-02T15:56:13.181Z,100.00
2023-05-02T15:58:43.495Z,100.00
2023-05-02T16:01:13.863Z,100.00
2023-05-02T16:03:44.462Z,100.00
2023-05-02T16:06:16.189Z,100.00
2023-05-02T16:08:46.618Z,100.00
2023-05-02T16:11:17.003Z,100.00
2023-05-02T16:13:47.335Z,100.00
2023-05-02T16:16:17.751Z,100.00
2023-05-02T16:18:48.317Z,100.00
2023-05-02T16:21:18.714Z,100.00
2023-05-02T16:23:49.359Z,100.00
2023-05-02T16:26:20.815Z,100.00
2023-05-02T16:28:51.176Z,100.00
2023-05-02T16:31:21.584Z,100.00
2023-05-02T16:33:52.208Z,100.00
2023-05-02T16:36:22.472Z,100.00
2023-05-02T16:38:52.877Z,100.00
2023-05-02T16:41:23.187Z,100.00
2023-05-02T16:43:53.769Z,100.00
2023-05-02T16:46:24.134Z,100.00
2023-05-02T16:48:54.519Z,100.00
2023-05-02T16:51:24.901Z,100.00
2023-05-02T16:53:55.194Z,100.00
2023-05-02T16:56:25.530Z,100.00
2023-05-02T16:58:55.825Z,100.00
2023-05-02T17:01:26.580Z,100.00
2023-05-02T17:03:56.987Z,100.00
2023-05-02T17:06:28.082Z,100.00
2023-05-02T17:08:58.417Z,100.00
2023-05-02T17:11:28.899Z,100.00
2023-05-02T17:13:59.179Z,100.00
2023-05-02T17:16:29.584Z,100.00
2023-05-02T17:19:00.473Z,100.00
2023-05-02T17:21:31.440Z,100.00
2023-05-02T17:24:01.902Z,100.00
2023-05-02T17:26:32.249Z,100.00
2023-05-02T17:29:02.683Z,100.00
2023-05-02T17:31:33.682Z,100.00
2023-05-02T17:34:04.397Z,100.00
2023-05-02T17:36:35.426Z,100.00
2023-05-02T17:39:06.147Z,100.00
2023-05-02T17:41:39.215Z,100.00
2023-05-02T17:44:09.557Z,100.00
2023-05-02T17:46:39.934Z,100.00
2023-05-02T17:49:10.365Z,100.00
2023-05-02T17:51:40.669Z,100.00
2023-05-02T17:54:11.263Z,100.00
2023-05-02T17:56:42.742Z,100.00
2023-05-02T17:59:13.144Z,100.00
2023-05-02T18:01:43.525Z,100.00
2023-05-02T18:04:14.957Z,100.00
2023-05-02T18:06:45.661Z,100.00
2023-05-02T18:09:16.104Z,100.00
2023-05-02T18:11:47.224Z,100.00
2023-05-02T18:14:18.384Z,100.00
2023-05-02T18:16:48.868Z,100.00
2023-05-02T18:19:19.271Z,100.00
2023-05-02T18:21:49.582Z,100.00
2023-05-02T18:24:20.017Z,100.00
2023-05-02T18:26:52.711Z,100.00
2023-05-02T18:29:23.102Z,100.00
2023-05-02T18:31:54.071Z,100.00
2023-05-02T18:34:24.448Z,100.00
2023-05-02T18:36:54.831Z,100.00
2023-05-02T18:39:25.168Z,100.00
2023-05-02T18:41:55.539Z,100.00
2023-05-02T18:44:26.162Z,100.00
2023-05-02T18:46:57.624Z,100.00
2023-05-02T18:49:28.077Z,100.00
2023-05-02T18:51:58.408Z,100.00
2023-05-02T18:54:29.371Z,100.00
2023-05-02T18:56:59.709Z,100.00
2023-05-02T18:59:30.408Z,100.00
2023-05-02T19:02:00.888Z,100.00
2023-05-02T19:04:34.142Z,100.00
2023-05-02T19:07:04.515Z,100.00
2023-05-02T19:09:34.858Z,100.00
2023-05-02T19:12:05.714Z,100.00
2023-05-02T19:14:39.638Z,100.00
2023-05-02T19:17:10.075Z,100.00
2023-05-02T19:19:41.687Z,100.00
2023-05-02T19:22:13.735Z,100.00
2023-05-02T19:24:44.142Z,100.00
2023-05-02T19:27:14.581Z,100.00
2023-05-02T19:29:44.940Z,100.00
2023-05-02T19:32:16.781Z,100.00
2023-05-02T19:34:47.138Z,100.00
2023-05-02T19:37:17.580Z,100.00
2023-05-02T19:39:47.967Z,100.00
2023-05-02T19:42:18.265Z,100.00
2023-05-02T19:44:49.169Z,100.00
2023-05-02T19:47:19.580Z,100.00
2023-05-02T19:49:51.404Z,100.00
2023-05-02T19:52:21.712Z,100.00
2023-05-02T19:54:54.859Z,100.00
2023-05-02T19:57:25.317Z,100.00
2023-05-02T19:59:55.890Z,100.00
2023-05-02T20:02:27.040Z,100.00
2023-05-02T20:04:57.487Z,100.00
2023-05-02T20:07:28.221Z,100.00
2023-05-02T20:09:58.809Z,100.00
2023-05-02T20:12:29.231Z,100.00
2023-05-02T20:14:59.674Z,100.00
2023-05-02T20:17:30.292Z,100.00
2023-05-02T20:20:07.260Z,100.00
2023-05-02T20:22:36.073Z,100.00
2023-05-02T20:25:08.283Z,100.00
2023-05-02T20:27:38.777Z,100.00
2023-05-02T20:30:12.330Z,100.00
2023-05-02T20:32:42.758Z,100.00
2023-05-02T20:35:13.780Z,100.00
2023-05-02T20:37:44.124Z,100.00
2023-05-02T20:40:15.449Z,100.00
2023-05-02T20:42:47.259Z,100.00
2023-05-02T20:45:20.313Z,100.00
2023-05-02T20:47:51.257Z,100.00
2023-05-02T20:50:22.120Z,100.00
2023-05-02T20:52:52.447Z,100.00
2023-05-02T20:55:23.780Z,100.00
2023-05-02T20:57:54.202Z,100.00
2023-05-02T21:00:24.904Z,100.00
2023-05-02T21:02:55.419Z,100.00
2023-05-02T21:05:26.736Z,100.00
2023-05-02T21:07:57.136Z,100.00
2023-05-02T21:10:28.173Z,100.00
2023-05-02T21:12:58.465Z,100.00
2023-05-02T21:15:28.974Z,100.00
2023-05-02T21:18:07.104Z,100.00
2023-05-02T21:20:38.206Z,100.00
2023-05-02T21:23:11.227Z,100.00
2023-05-02T21:25:41.775Z,100.00
2023-05-02T21:28:12.109Z,100.00
2023-05-02T21:30:42.934Z,100.00
2023-05-02T21:33:15.567Z,100.00
2023-05-02T21:35:46.501Z,100.00
2023-05-02T21:38:16.865Z,100.00
2023-05-02T21:40:47.355Z,100.00
2023-05-02T21:43:17.692Z,100.00
2023-05-02T21:45:48.560Z,100.00
2023-05-02T21:48:19.150Z,100.00
2023-05-02T21:50:49.478Z,100.00
2023-05-02T21:53:20.001Z,100.00
2023-05-02T21:55:50.621Z,100.00
2023-05-02T21:58:20.908Z,100.00
2023-05-02T22:00:51.214Z,100.00
2023-05-02T22:03:23.434Z,100.00
2023-05-02T22:05:54.571Z,100.00
2023-05-02T22:08:25.216Z,100.00
2023-05-02T22:10:55.596Z,100.00
2023-05-02T22:13:25.995Z,100.00
2023-05-02T22:15:56.393Z,100.00
2023-05-02T22:18:26.912Z,100.00
2023-05-02T22:20:58.602Z,100.00
2023-05-02T22:23:31.149Z,100.00
2023-05-02T22:26:01.695Z,100.00
2023-05-02T22:28:32.014Z,100.00
2023-05-02T22:31:03.337Z,100.00
2023-05-02T22:33:33.752Z,100.00
2023-05-02T22:36:04.217Z,100.00
2023-05-02T22:38:34.592Z,100.00
2023-05-02T22:41:06.597Z,100.00
2023-05-02T22:43:37.011Z,100.00
2023-05-02T22:46:07.464Z,100.00
2023-05-02T22:48:37.793Z,100.00
2023-05-02T22:51:08.265Z,100.00
2023-05-02T22:53:38.813Z,100.00
2023-05-02T22:56:09.706Z,100.00
2023-05-02T22:58:40.089Z,100.00
2023-05-02T23:01:11.273Z,100.00
2023-05-02T23:03:41.845Z,100.00
2023-05-02T23:06:12.357Z,100.00
2023-05-02T23:08:42.699Z,100.00
2023-05-02T23:11:13.099Z,100.00
2023-05-02T23:13:43.470Z,100.00
2023-05-02T23:16:13.844Z,100.00
2023-05-02T23:18:44.160Z,100.00
2023-05-02T23:21:18.064Z,100.00
2023-05-02T23:23:48.557Z,100.00
2023-05-02T23:26:18.966Z,100.00
2023-05-02T23:28:49.296Z,100.00
2023-05-02T23:31:19.973Z,100.00
2023-05-02T23:33:50.409Z,100.00
2023-05-02T23:36:21.366Z,100.00
2023-05-02T23:38:52.025Z,100.00
2023-05-02T23:41:22.487Z,100.00
2023-05-02T23:43:53.305Z,100.00
2023-05-02T23:46:24.773Z,100.00
2023-05-02T23:48:55.135Z,100.00
2023-05-02T23:51:25.554Z,100.00
2023-05-02T23:53:55.873Z,100.00
2023-05-02T23:56:26.795Z,100.00
2023-05-02T23:58:57.776Z,100.00
